Time;durP1;ratioP1;P1;durP2;ratioP2;P2;SDS_P1;SDS_P2;PMS_P1;PMS_P2;Temp;Humidity;BMP_temperature;BMP_pressure;BME280_temperature;BME280_humidity;BME280_pressure;Samples;Min_cycle;Max_cycle;Signal;HPM_P1;HPM_P2
2023/03/16 00:00:55;;;;;;;1.97;1.00;;;;;;;2.74;57.00;101826.53;6175926;22;97089;-51
2023/03/16 00:03:21;;;;;;;2.10;1.13;;;;;;;2.73;57.08;101819.59;6175027;22;96622;-50
2023/03/16 00:05:50;;;;;;;4.00;1.30;;;;;;;2.75;57.25;101830.81;6174618;22;97252;-52
2023/03/16 00:08:17;;;;;;;2.50;1.17;;;;;;;2.74;57.03;101826.53;6173998;22;97205;-52
2023/03/16 00:10:46;;;;;;;0.90;0.80;;;;;;;2.73;57.13;101831.19;6174859;22;96649;-51
2023/03/16 00:13:16;;;;;;;1.40;0.80;;;;;;;2.70;57.30;101826.59;6174710;22;97318;-50
2023/03/16 00:15:52;;;;;;;3.70;1.17;;;;;;;2.71;57.25;101827.38;6174785;22;96989;-51
2023/03/16 00:18:17;;;;;;;2.30;0.80;;;;;;;2.68;57.18;101828.19;6174035;22;96899;-51
2023/03/16 00:20:43;;;;;;;1.10;1.00;;;;;;;2.65;57.12;101829.00;6174890;22;96881;-52
2023/03/16 00:23:08;;;;;;;0.87;0.87;;;;;;;2.64;57.47;101833.69;6174473;22;99909;-51
2023/03/16 00:25:33;;;;;;;2.53;1.10;;;;;;;2.64;57.27;101828.25;6174470;22;109481;-51
2023/03/16 00:28:02;;;;;;;2.20;1.07;;;;;;;2.63;57.26;101823.97;6174352;22;97715;-52
2023/03/16 00:30:28;;;;;;;3.20;0.97;;;;;;;2.64;57.08;101827.47;6174954;22;97100;-51
2023/03/16 00:32:54;;;;;;;1.50;1.20;;;;;;;2.60;57.22;101832.94;6174206;22;96637;-51
2023/03/16 00:35:20;;;;;;;2.87;1.03;;;;;;;2.56;57.13;101832.22;6175029;22;97206;-51
2023/03/16 00:37:45;;;;;;;2.63;1.03;;;;;;;2.55;57.14;101825.25;6174125;22;97084;-51
2023/03/16 00:40:11;;;;;;;4.33;1.70;;;;;;;2.53;57.33;101819.47;6175038;22;96518;-51
2023/03/16 00:42:37;;;;;;;2.00;1.17;;;;;;;2.48;57.34;101817.19;6174979;22;97308;-51
2023/03/16 00:45:04;;;;;;;2.70;0.90;;;;;;;2.45;57.31;101809.84;6174897;22;96976;-51
2023/03/16 00:47:31;;;;;;;1.83;1.10;;;;;;;2.43;57.30;101808.72;6174630;22;97100;-51
2023/03/16 00:49:57;;;;;;;3.33;1.33;;;;;;;2.40;57.33;101818.47;6175914;22;97333;-51
2023/03/16 00:52:24;;;;;;;2.00;1.20;;;;;;;2.36;57.46;101806.88;6174734;22;97421;-51
2023/03/16 00:54:52;;;;;;;1.27;1.17;;;;;;;2.36;57.30;101806.88;6174384;22;96616;-50
2023/03/16 00:57:17;;;;;;;1.27;1.17;;;;;;;2.36;57.46;101817.72;6173772;22;96563;-50
2023/03/16 00:59:44;;;;;;;4.70;1.10;;;;;;;2.36;57.35;101823.16;6174994;22;96571;-51
2023/03/16 01:02:10;;;;;;;0.93;0.83;;;;;;;2.36;57.47;101812.28;6174894;22;97621;-52
2023/03/16 01:04:36;;;;;;;3.40;0.97;;;;;;;2.34;57.30;101801.06;6174933;22;97624;-51
2023/03/16 01:07:03;;;;;;;4.03;1.10;;;;;;;2.31;57.55;101810.06;6174526;22;96652;-50
2023/03/16 01:09:29;;;;;;;2.83;1.00;;;;;;;2.31;57.37;101815.50;6174819;22;96713;-51
2023/03/16 01:11:54;;;;;;;1.10;1.00;;;;;;;2.31;57.38;101810.06;6174918;22;96775;-51
2023/03/16 01:14:20;;;;;;;4.87;1.30;;;;;;;2.32;57.69;101802.66;6175158;22;96628;-51
2023/03/16 01:16:46;;;;;;;2.73;1.30;;;;;;;2.29;57.60;101796.88;6175392;22;97050;-51
2023/03/16 01:19:12;;;;;;;3.83;1.80;;;;;;;2.31;57.37;101799.19;6174328;22;97055;-51
2023/03/16 01:21:38;;;;;;;1.83;1.20;;;;;;;2.29;57.58;101798.84;6173960;22;97251;-51
2023/03/16 01:24:04;;;;;;;1.00;0.90;;;;;;;2.31;57.54;101807.34;6174780;22;97170;-51
2023/03/16 01:26:30;;;;;;;1.67;1.37;;;;;;;2.31;57.87;101807.34;6175118;22;97087;-51
2023/03/16 01:28:55;;;;;;;3.73;1.40;;;;;;;2.28;57.69;101795.34;6174922;22;96811;-51
2023/03/16 01:31:21;;;;;;;2.73;1.23;;;;;;;2.28;57.97;101794.56;6175303;22;99067;-51
2023/03/16 01:33:46;;;;;;;3.03;1.47;;;;;;;2.30;57.92;101797.66;6174258;22;96657;-51
2023/03/16 01:36:17;;;;;;;2.07;1.30;;;;;;;2.30;58.06;101797.66;6174102;22;97148;-51
2023/03/16 01:38:42;;;;;;;2.13;1.27;;;;;;;2.31;57.82;101806.56;6175024;22;96963;-51
2023/03/16 01:41:09;;;;;;;5.80;1.27;;;;;;;2.29;57.88;101793.41;6174686;22;96559;-51
2023/03/16 01:43:37;;;;;;;5.17;1.60;;;;;;;2.28;57.70;101795.34;6174234;22;96992;-51
2023/03/16 01:46:05;;;;;;;2.90;1.10;;;;;;;2.29;57.96;101791.44;6174677;22;96833;-50
2023/03/16 01:48:45;;;;;;;2.00;0.97;;;;;;;2.32;58.05;101805.38;6173297;22;97363;-51
2023/03/16 01:51:33;;;;;;;1.87;1.70;;;;;;;2.29;58.43;101799.59;6173611;22;97064;-50
2023/03/16 01:54:03;;;;;;;1.30;1.20;;;;;;;2.27;58.04;101799.22;6174359;22;97221;-51
2023/03/16 01:56:40;;;;;;;2.87;1.03;;;;;;;2.25;58.23;101790.72;6175034;22;96950;-49
2023/03/16 01:59:10;;;;;;;5.60;1.40;;;;;;;2.23;58.06;101797.72;6174300;22;97293;-51
2023/03/16 02:01:36;;;;;;;2.10;1.20;;;;;;;2.19;57.94;101789.63;6174356;22;98500;-51
2023/03/16 02:04:13;;;;;;;2.50;1.20;;;;;;;2.20;58.21;101798.56;6174667;22;96949;-51
2023/03/16 02:06:39;;;;;;;1.30;1.20;;;;;;;2.17;58.24;101800.13;6173403;22;97010;-50
2023/03/16 02:09:05;;;;;;;3.67;1.20;;;;;;;2.18;58.08;101801.66;6174662;22;97025;-51
2023/03/16 02:11:30;;;;;;;4.10;1.63;;;;;;;2.19;57.84;101795.06;6173604;22;96789;-51
2023/03/16 02:14:01;;;;;;;2.10;1.53;;;;;;;2.18;58.23;101796.22;6174214;22;97018;-51
2023/03/16 02:16:26;;;;;;;2.50;1.33;;;;;;;2.19;57.98;101788.84;6174715;22;96602;-51
2023/03/16 02:18:52;;;;;;;1.40;1.27;;;;;;;2.18;58.03;101785.38;6173906;22;96990;-51
2023/03/16 02:21:44;;;;;;;3.00;1.97;;;;;;;2.16;58.60;101778.84;6174139;22;97183;-51
2023/03/16 02:24:09;;;;;;;3.60;1.27;;;;;;;2.15;58.04;101774.56;6174205;22;96577;-51
2023/03/16 02:27:20;;;;;;;2.30;1.57;;;;;;;2.14;58.88;101779.22;6174524;22;96648;-51
2023/03/16 02:30:07;;;;;;;2.60;1.20;;;;;;;2.13;57.87;101785.06;6022487;23;97320;-51
2023/03/16 02:32:34;;;;;;;4.20;1.20;;;;;;;2.10;57.89;101769.56;6172782;22;97218;-51
2023/03/16 02:35:01;;;;;;;3.90;1.30;;;;;;;2.07;58.04;101762.28;6173813;22;97034;-51
2023/03/16 02:37:27;;;;;;;2.13;1.30;;;;;;;2.11;57.82;101763.00;6173265;22;96570;-51
2023/03/16 02:39:52;;;;;;;3.70;1.57;;;;;;;2.10;58.29;101759.50;6174280;22;96679;-50
2023/03/16 02:42:23;;;;;;;3.90;1.60;;;;;;;2.07;58.15;101759.56;6173951;22;97361;-51
2023/03/16 02:44:53;;;;;;;1.53;1.10;;;;;;;2.04;58.27;101769.28;6173498;22;97139;-51
2023/03/16 02:47:29;;;;;;;3.87;1.63;;;;;;;2.05;58.34;101753.75;6173363;22;96942;-50
2023/03/16 02:49:55;;;;;;;2.87;1.47;;;;;;;2.05;58.07;101749.09;6174359;22;97178;-51
2023/03/16 02:52:20;;;;;;;1.40;1.30;;;;;;;2.08;58.40;101744.78;6174551;22;97580;-51
2023/03/16 02:54:45;;;;;;;1.13;1.03;;;;;;;2.08;58.26;101747.50;6173869;22;105460;-51
2023/03/16 02:57:11;;;;;;;1.47;1.27;;;;;;;2.09;58.35;101749.06;6173641;22;96594;-49
2023/03/16 02:59:36;;;;;;;1.40;1.30;;;;;;;2.07;58.31;101756.84;6173936;22;96618;-51
2023/03/16 03:02:01;;;;;;;1.80;0.87;;;;;;;2.05;58.26;101746.38;6174671;22;97833;-51
2023/03/16 03:04:27;;;;;;;1.63;0.97;;;;;;;2.04;58.26;101755.72;6174914;22;97007;-51
2023/03/16 03:06:52;;;;;;;2.10;1.37;;;;;;;2.06;58.26;101749.84;6173697;22;96756;-51
2023/03/16 03:09:18;;;;;;;1.27;0.90;;;;;;;2.01;58.40;101745.66;6175275;22;96927;-51
2023/03/16 03:11:45;;;;;;;1.47;1.37;;;;;;;2.00;58.49;101748.78;6175174;22;96946;-51
2023/03/16 03:14:11;;;;;;;1.10;1.10;;;;;;;2.01;58.28;101740.22;6174809;22;97196;-51
2023/03/16 03:16:36;;;;;;;1.47;1.37;;;;;;;2.04;58.20;101741.34;6175140;22;96539;-50
2023/03/16 03:19:01;;;;;;;2.20;1.10;;;;;;;2.03;58.27;101739.84;6175299;22;96974;-51
2023/03/16 03:21:27;;;;;;;4.27;1.57;;;;;;;2.03;58.48;101747.97;6175339;22;97032;-50
2023/03/16 03:23:52;;;;;;;3.87;1.10;;;;;;;2.03;58.48;101747.97;6174534;22;98287;-51
2023/03/16 03:26:18;;;;;;;0.97;0.87;;;;;;;2.02;58.24;101747.19;6173616;22;96516;-51
2023/03/16 03:28:44;;;;;;;1.00;0.90;;;;;;;2.01;58.33;101750.34;6173811;22;97160;-49
2023/03/16 03:31:18;;;;;;;5.70;1.37;;;;;;;2.00;58.53;101754.22;6174359;22;96633;-51
2023/03/16 03:33:44;;;;;;;1.13;1.03;;;;;;;1.99;58.78;101758.06;6174453;22;97193;-51
2023/03/16 03:36:10;;;;;;;1.90;0.93;;;;;;;2.00;58.63;101756.91;6175002;22;97203;-51
2023/03/16 03:38:36;;;;;;;2.23;1.00;;;;;;;1.99;58.48;101760.78;6174721;22;97142;-51
2023/03/16 03:41:01;;;;;;;3.10;1.63;;;;;;;1.99;58.37;101756.16;6174731;22;97734;-51
2023/03/16 03:43:27;;;;;;;1.83;1.30;;;;;;;1.98;58.31;101753.84;6175230;22;97161;-51
2023/03/16 03:45:59;;;;;;;2.77;1.30;;;;;;;1.99;58.51;101758.84;6175071;22;97110;-50
2023/03/16 03:48:25;;;;;;;3.63;1.50;;;;;;;1.94;58.35;101753.91;6174519;22;96521;-51
2023/03/16 03:50:51;;;;;;;5.07;1.37;;;;;;;1.93;58.37;101755.06;6173671;22;96601;-50
2023/03/16 03:53:17;;;;;;;1.50;1.13;;;;;;;1.92;58.62;101755.47;6175177;22;97130;-51
2023/03/16 03:55:42;;;;;;;5.70;1.53;;;;;;;1.93;58.57;101760.50;6175173;22;96995;-50
2023/03/16 03:58:07;;;;;;;4.20;1.20;;;;;;;1.91;58.43;101789.97;6174433;22;96827;-50
2023/03/16 04:00:33;;;;;;;1.93;1.23;;;;;;;1.91;58.64;101770.19;6174296;22;96693;-51
2023/03/16 04:02:58;;;;;;;3.33;1.10;;;;;;;1.91;58.70;101760.13;6174738;22;96656;-51
2023/03/16 04:05:26;;;;;;;3.00;1.23;;;;;;;1.93;58.65;101773.28;6174808;22;96703;-51
2023/03/16 04:07:56;;;;;;;1.83;1.07;;;;;;;1.93;58.40;101767.84;6173495;22;96938;-51
2023/03/16 04:10:25;;;;;;;2.30;1.20;;;;;;;1.93;58.44;101765.13;6174325;22;97268;-50
2023/03/16 04:12:50;;;;;;;3.10;1.33;;;;;;;1.94;58.55;101755.84;6174682;22;97153;-50
2023/03/16 04:15:15;;;;;;;1.17;0.93;;;;;;;1.91;58.78;101746.56;6174394;22;96995;-51
2023/03/16 04:17:41;;;;;;;1.33;1.20;;;;;;;1.90;58.64;101745.00;6174468;22;96971;-51
2023/03/16 04:20:13;;;;;;;3.80;0.90;;;;;;;1.88;58.67;101754.75;6174540;22;97514;-51
2023/03/16 04:22:41;;;;;;;1.57;1.00;;;;;;;1.88;59.02;101749.31;6171892;22;96936;-51
2023/03/16 04:25:09;;;;;;;1.07;0.97;;;;;;;1.92;58.78;101755.47;6175102;22;97451;-50
2023/03/16 04:27:35;;;;;;;1.93;1.03;;;;;;;1.93;58.96;101748.84;6174802;22;96899;-51
2023/03/16 04:30:04;;;;;;;2.60;1.00;;;;;;;1.94;58.94;101751.19;6174053;22;96648;-51
2023/03/16 04:32:31;;;;;;;1.07;0.97;;;;;;;1.94;58.76;101753.13;6175350;22;97160;-50
2023/03/16 04:34:57;;;;;;;1.70;1.07;;;;;;;1.92;58.57;101748.09;6174948;22;96559;-50
2023/03/16 04:37:22;;;;;;;2.63;1.00;;;;;;;1.93;58.75;101759.72;6173671;22;97151;-50
2023/03/16 04:39:47;;;;;;;4.00;2.00;;;;;;;1.92;58.54;101761.66;6173843;22;96858;-50
2023/03/16 04:42:13;;;;;;;3.20;1.23;;;;;;;1.92;58.78;101755.47;6174461;22;97033;-51
2023/03/16 04:44:43;;;;;;;0.87;0.87;;;;;;;1.91;58.92;101760.13;6174267;22;96526;-50
2023/03/16 04:47:11;;;;;;;0.77;0.70;;;;;;;1.93;59.12;101751.56;6172653;22;96767;-51
2023/03/16 04:49:36;;;;;;;0.97;0.87;;;;;;;1.94;58.80;101750.41;6172707;22;98352;-50
2023/03/16 04:52:02;;;;;;;2.20;1.03;;;;;;;1.94;58.78;101744.97;6174870;22;97627;-51
2023/03/16 04:54:28;;;;;;;1.83;1.00;;;;;;;1.95;59.11;101743.78;6174365;22;96810;-51
2023/03/16 04:56:53;;;;;;;1.13;0.90;;;;;;;1.97;58.94;101755.00;6175257;22;97090;-50
2023/03/16 04:59:18;;;;;;;0.83;0.80;;;;;;;1.97;58.96;101758.50;6172285;22;106323;-50
2023/03/16 05:01:44;;;;;;;9.80;0.90;;;;;;;1.98;58.67;101759.28;6173436;22;97032;-51
2023/03/16 05:04:09;;;;;;;3.07;0.80;;;;;;;1.97;58.67;101753.06;6173996;22;97072;-50
2023/03/16 05:06:34;;;;;;;1.33;1.10;;;;;;;1.99;58.96;101749.94;6174361;22;96817;-50
2023/03/16 05:09:00;;;;;;;2.40;1.30;;;;;;;1.99;58.75;101749.94;6174016;22;99471;-51
2023/03/16 05:11:25;;;;;;;2.83;0.97;;;;;;;2.00;58.86;101748.78;6172134;22;96997;-49
2023/03/16 05:13:51;;;;;;;2.23;1.17;;;;;;;2.01;59.11;101734.03;6174944;22;97099;-50
2023/03/16 05:16:16;;;;;;;0.90;0.80;;;;;;;2.02;59.04;101732.84;6174574;22;97057;-50
2023/03/16 05:18:41;;;;;;;2.17;0.87;;;;;;;2.03;59.25;101726.28;6173379;22;97366;-50
2023/03/16 05:21:07;;;;;;;2.40;0.87;;;;;;;2.07;59.00;101735.91;6173361;22;101538;-50
2023/03/16 05:23:32;;;;;;;1.23;1.17;;;;;;;2.13;59.32;101728.06;6173490;22;97317;-50
2023/03/16 05:26:01;;;;;;;1.40;0.80;;;;;;;2.16;59.05;101732.69;6173734;22;96838;-50
2023/03/16 05:28:26;;;;;;;0.70;0.70;;;;;;;2.20;59.11;101736.13;6173282;22;97320;-50
2023/03/16 05:30:52;;;;;;;0.80;0.70;;;;;;;2.24;59.21;101728.69;6173765;22;96885;-50
2023/03/16 05:33:18;;;;;;;3.27;1.00;;;;;;;2.27;59.30;101725.16;6174932;22;96747;-50
2023/03/16 05:35:43;;;;;;;1.03;0.80;;;;;;;2.28;59.22;101724.75;6174588;22;96683;-51
2023/03/16 05:38:11;;;;;;;0.80;0.73;;;;;;;2.30;59.13;101727.06;6172879;22;96564;-51
2023/03/16 05:40:37;;;;;;;0.70;0.70;;;;;;;2.34;59.24;101725.06;6173639;22;97461;-50
2023/03/16 05:43:03;;;;;;;1.67;1.17;;;;;;;2.37;59.08;101710.66;6174752;22;96602;-50
2023/03/16 05:45:29;;;;;;;3.63;1.00;;;;;;;2.41;59.10;101711.38;6173660;22;97123;-51
2023/03/16 05:47:54;;;;;;;2.00;0.87;;;;;;;2.45;59.12;101719.47;6173503;22;97063;-51
2023/03/16 05:50:21;;;;;;;1.90;1.20;;;;;;;2.47;59.28;101715.16;6173903;22;96845;-51
2023/03/16 05:52:47;;;;;;;4.20;1.10;;;;;;;2.51;59.02;101710.44;6173873;22;96960;-51
2023/03/16 05:55:14;;;;;;;2.87;0.80;;;;;;;2.55;59.01;101718.56;6146700;22;97172;-50
2023/03/16 05:57:40;;;;;;;3.60;0.70;;;;;;;2.61;59.09;101716.91;6173962;22;97284;-50
2023/03/16 06:00:15;;;;;;;2.63;0.93;;;;;;;2.63;59.15;101722.69;6174208;22;96548;-50
2023/03/16 06:02:47;;;;;;;2.87;0.80;;;;;;;2.67;59.08;101726.91;6174210;22;96579;-50
2023/03/16 06:05:12;;;;;;;3.80;0.90;;;;;;;2.70;59.04;101738.91;6174447;22;96973;-51
2023/03/16 06:07:38;;;;;;;1.20;0.67;;;;;;;2.73;59.10;101733.41;6173215;22;97453;-50
2023/03/16 06:10:04;;;;;;;2.30;0.77;;;;;;;2.77;59.20;101736.06;6174301;22;97535;-51
2023/03/16 06:12:30;;;;;;;1.60;1.00;;;;;;;2.79;59.07;101737.22;6174476;22;96663;-50
2023/03/16 06:14:56;;;;;;;1.63;0.60;;;;;;;2.84;58.96;101734.00;6174151;22;96739;-49
2023/03/16 06:17:21;;;;;;;1.50;0.80;;;;;;;2.86;58.96;101736.31;6172063;22;97390;-51
2023/03/16 06:19:46;;;;;;;3.50;1.00;;;;;;;2.88;58.99;101726.56;6173434;22;96882;-50
2023/03/16 06:22:12;;;;;;;1.20;0.80;;;;;;;2.91;59.36;101728.47;6173026;22;96997;-50
2023/03/16 06:24:37;;;;;;;2.10;0.80;;;;;;;2.95;59.28;101731.88;6174337;22;96659;-50
2023/03/16 06:27:03;;;;;;;3.10;1.10;;;;;;;2.99;59.04;101735.31;6173458;22;97266;-50
2023/03/16 06:29:28;;;;;;;2.33;1.00;;;;;;;3.03;59.28;101735.25;6173634;22;96606;-51
2023/03/16 06:31:54;;;;;;;1.83;1.00;;;;;;;3.05;59.16;101732.91;6174041;22;97141;-51
2023/03/16 06:34:19;;;;;;;5.23;1.33;;;;;;;3.06;59.03;101737.13;6174810;22;96499;-51
2023/03/16 06:36:44;;;;;;;1.00;0.90;;;;;;;3.08;59.16;101739.47;6172606;22;97220;-50
2023/03/16 06:39:10;;;;;;;2.30;0.90;;;;;;;3.07;59.09;101735.97;6173473;22;97100;-50
2023/03/16 06:41:35;;;;;;;0.80;0.80;;;;;;;3.08;59.15;101742.19;6173640;22;96885;-51
2023/03/16 06:44:01;;;;;;;1.87;0.90;;;;;;;3.09;59.04;101735.53;6174594;22;97353;-50
2023/03/16 06:46:26;;;;;;;1.40;0.70;;;;;;;3.12;59.31;101738.22;6173063;22;97188;-50
2023/03/16 06:48:52;;;;;;;1.00;0.73;;;;;;;3.17;59.12;101742.41;6172403;22;96968;-51
2023/03/16 06:51:17;;;;;;;2.63;0.97;;;;;;;3.21;58.90;101745.84;6174192;22;96732;-51
2023/03/16 06:53:42;;;;;;;1.63;1.00;;;;;;;3.25;59.14;101749.25;6173837;22;97135;-51
2023/03/16 06:56:08;;;;;;;0.90;0.70;;;;;;;3.33;59.41;101743.28;6173207;22;97055;-49
2023/03/16 06:58:33;;;;;;;1.33;0.80;;;;;;;3.43;59.44;101755.16;6146602;22;97070;-51
2023/03/16 07:01:03;;;;;;;5.70;1.30;;;;;;;3.58;59.22;101764.59;6174374;22;97280;-50
2023/03/16 07:03:28;;;;;;;1.07;0.67;;;;;;;3.69;59.38;101760.47;6173266;22;96631;-50
2023/03/16 07:05:54;;;;;;;2.20;0.83;;;;;;;3.81;59.35;101764.53;6172726;22;97326;-50
2023/03/16 07:08:19;;;;;;;2.47;1.43;;;;;;;3.92;59.12;101767.06;6172456;22;108462;-51
2023/03/16 07:10:44;;;;;;;3.23;1.30;;;;;;;3.98;59.41;101766.13;6173028;22;96985;-51
2023/03/16 07:13:10;;;;;;;2.53;0.90;;;;;;;4.04;59.27;101772.63;6173719;22;97287;-51
2023/03/16 07:15:35;;;;;;;2.00;0.60;;;;;;;4.13;59.18;101778.28;6174165;22;97490;-51
2023/03/16 07:18:01;;;;;;;2.70;0.80;;;;;;;4.23;59.10;101773.81;6173039;22;96832;-51
2023/03/16 07:20:28;;;;;;;7.87;0.90;;;;;;;4.29;59.02;101775.63;6173905;22;96976;-51
2023/03/16 07:22:54;;;;;;;3.20;1.10;;;;;;;4.35;59.25;101782.09;6174393;22;96871;-51
2023/03/16 07:25:20;;;;;;;1.47;0.97;;;;;;;4.46;59.30;101781.88;6173338;22;97068;-50
2023/03/16 07:27:46;;;;;;;1.70;0.70;;;;;;;4.59;59.02;101782.00;6172784;22;97769;-50
2023/03/16 07:30:13;;;;;;;2.53;0.70;;;;;;;4.67;58.84;101783.38;6172515;22;97379;-50
2023/03/16 07:32:41;;;;;;;1.27;0.90;;;;;;;4.71;58.94;101779.38;6173642;22;96784;-51
2023/03/16 07:35:08;;;;;;;2.30;1.00;;;;;;;4.76;58.86;101780.84;6173642;22;97139;-51
2023/03/16 07:37:34;;;;;;;2.23;1.20;;;;;;;4.79;59.05;101786.19;6171865;22;96975;-51
2023/03/16 07:40:00;;;;;;;1.60;1.10;;;;;;;4.81;58.97;101786.53;6174064;22;96886;-51
2023/03/16 07:42:25;;;;;;;1.47;1.07;;;;;;;4.81;58.81;101785.75;6173831;22;96693;-51
2023/03/16 07:44:51;;;;;;;5.50;0.90;;;;;;;4.83;58.92;101797.00;6172014;22;96862;-51
2023/03/16 07:47:16;;;;;;;1.27;0.93;;;;;;;4.88;58.88;101789.09;6173251;22;97541;-51
2023/03/16 07:49:43;;;;;;;5.53;1.00;;;;;;;4.95;58.98;101799.06;6173539;22;96750;-51
2023/03/16 07:52:12;;;;;;;3.90;1.33;;;;;;;5.05;58.92;101795.31;6175021;22;97197;-52
2023/03/16 07:54:38;;;;;;;2.03;0.60;;;;;;;5.16;58.40;101791.16;6173963;22;97238;-51
2023/03/16 07:57:04;;;;;;;1.07;0.70;;;;;;;5.26;58.42;101795.56;6173687;22;96849;-51
2023/03/16 07:59:30;;;;;;;2.83;1.00;;;;;;;5.33;58.42;101795.41;6174933;22;97026;-50
2023/03/16 08:01:55;;;;;;;1.53;1.00;;;;;;;5.43;58.28;101795.56;6174745;22;97084;-51
2023/03/16 08:04:21;;;;;;;1.73;0.90;;;;;;;5.53;58.28;101784.38;6173627;22;96887;-51
2023/03/16 08:06:46;;;;;;;2.60;1.33;;;;;;;5.62;58.14;101794.66;6174150;22;96988;-51
2023/03/16 08:09:12;;;;;;;1.07;0.90;;;;;;;5.74;58.13;101796.69;6174382;22;96688;-51
2023/03/16 08:11:37;;;;;;;1.00;0.80;;;;;;;5.84;57.87;101796.44;6175061;22;96668;-51
2023/03/16 08:14:03;;;;;;;3.07;1.00;;;;;;;5.94;58.03;101794.63;6173933;22;97344;-51
2023/03/16 08:16:28;;;;;;;1.60;0.93;;;;;;;6.06;57.93;101799.34;6174052;22;96944;-51
2023/03/16 08:18:57;;;;;;;1.10;1.00;;;;;;;6.16;57.68;101794.78;6173524;22;96864;-51
2023/03/16 08:21:23;;;;;;;0.83;0.80;;;;;;;6.27;57.92;101800.72;6174609;22;97112;-52
2023/03/16 08:23:49;;;;;;;2.60;0.83;;;;;;;6.40;57.59;101806.97;6173961;22;96995;-51
2023/03/16 08:26:20;;;;;;;3.60;1.17;;;;;;;6.51;57.30;101804.69;6174313;22;96574;-51
2023/03/16 08:28:46;;;;;;;2.60;1.00;;;;;;;6.57;57.64;101783.81;6173893;22;96682;-52
2023/03/16 08:31:12;;;;;;;2.60;0.90;;;;;;;6.66;57.25;101797.59;6174700;22;97042;-52
2023/03/16 08:33:39;;;;;;;1.10;1.00;;;;;;;6.74;57.28;101790.69;6173853;22;96959;-52
2023/03/16 08:36:06;;;;;;;2.10;0.90;;;;;;;6.82;56.87;101790.03;6174506;22;96887;-52
2023/03/16 08:38:32;;;;;;;2.03;0.83;;;;;;;6.90;57.00;101779.66;6173482;22;96504;-51
2023/03/16 08:40:59;;;;;;;1.23;0.87;;;;;;;7.02;57.10;101780.81;6147418;22;97400;-51
2023/03/16 08:43:25;;;;;;;3.23;0.90;;;;;;;7.12;56.60;101787.94;6173672;22;96997;-51
2023/03/16 08:45:51;;;;;;;2.70;1.17;;;;;;;7.25;56.64;101786.69;6146880;22;97015;-51
2023/03/16 08:48:17;;;;;;;3.23;0.93;;;;;;;7.37;56.72;101782.41;6174252;22;96625;-52
2023/03/16 08:50:43;;;;;;;2.20;1.07;;;;;;;7.54;56.58;101792.75;6174524;22;96942;-52
2023/03/16 08:53:09;;;;;;;2.10;0.80;;;;;;;7.72;56.31;101785.88;6174621;22;97653;-52
2023/03/16 08:55:35;;;;;;;0.80;0.80;;;;;;;7.89;56.35;101790.75;6174397;22;96475;-52
2023/03/16 08:58:01;;;;;;;3.20;0.77;;;;;;;8.06;56.21;101781.13;6174417;22;96955;-52
2023/03/16 09:00:27;;;;;;;1.60;0.83;;;;;;;8.26;55.85;101784.31;6175688;22;97295;-52
2023/03/16 09:02:54;;;;;;;1.43;0.90;;;;;;;8.50;55.88;101792.06;6174185;22;97097;-52
2023/03/16 09:05:20;;;;;;;2.53;0.90;;;;;;;8.65;55.41;101791.06;6173912;22;97714;-52
2023/03/16 09:07:46;;;;;;;2.10;1.10;;;;;;;8.78;55.03;101786.22;6173765;22;97101;-52
2023/03/16 09:10:14;;;;;;;3.43;0.80;;;;;;;8.89;55.08;101781.09;6174607;22;96883;-52
2023/03/16 09:12:41;;;;;;;1.33;0.73;;;;;;;9.06;54.71;101779.59;6173949;22;96551;-50
2023/03/16 09:15:09;;;;;;;1.23;0.87;;;;;;;9.24;54.79;101778.88;6175041;22;97354;-52
2023/03/16 09:17:35;;;;;;;1.33;0.63;;;;;;;9.41;54.02;101771.91;6174432;22;97039;-52
2023/03/16 09:20:01;;;;;;;1.57;0.97;;;;;;;9.56;54.22;101766.56;6174050;22;96991;-52
2023/03/16 09:22:27;;;;;;;0.77;0.77;;;;;;;9.68;53.89;101757.41;6174161;22;97078;-52
2023/03/16 09:24:52;;;;;;;2.50;1.07;;;;;;;9.78;54.12;101762.41;6174518;22;97167;-52
2023/03/16 09:27:19;;;;;;;3.80;1.00;;;;;;;9.88;54.04;101759.66;6174249;22;96925;-52
2023/03/16 09:29:45;;;;;;;3.87;0.70;;;;;;;9.97;53.77;101756.91;6174096;22;97116;-52
2023/03/16 09:32:11;;;;;;;2.00;1.10;;;;;;;10.00;53.67;101750.50;6173846;22;97341;-52
2023/03/16 09:34:36;;;;;;;1.10;0.70;;;;;;;9.92;53.32;101754.78;6173904;22;97053;-52
2023/03/16 09:37:02;;;;;;;3.23;1.10;;;;;;;9.99;53.51;101759.97;6172938;22;96686;-52
2023/03/16 09:39:28;;;;;;;0.90;0.70;;;;;;;10.09;53.63;101748.47;6174573;22;97079;-52
2023/03/16 09:42:03;;;;;;;1.00;1.00;;;;;;;10.13;52.47;101742.84;6173848;22;96783;-52
2023/03/16 09:45:00;;;;;;;4.53;0.90;;;;;;;10.16;52.16;101748.19;6173771;22;97171;-50
2023/03/16 09:47:29;;;;;;;1.50;0.70;;;;;;;10.22;52.97;101740.81;6174464;22;96605;-52
2023/03/16 09:49:58;;;;;;;2.03;1.10;;;;;;;10.28;52.80;101739.00;6174349;22;96975;-52
2023/03/16 09:52:37;;;;;;;1.77;0.73;;;;;;;10.42;52.48;101737.56;6173788;22;97664;-53
2023/03/16 09:55:18;;;;;;;1.23;0.73;;;;;;;10.57;52.06;101739.16;6173642;22;97124;-51
2023/03/16 09:57:45;;;;;;;1.07;0.60;;;;;;;10.70;52.67;101740.97;6173490;22;96882;-52
2023/03/16 10:00:18;;;;;;;2.00;0.60;;;;;;;10.77;51.59;101740.63;6174400;22;97445;-51
2023/03/16 10:02:59;;;;;;;1.13;0.90;;;;;;;10.80;50.80;101731.41;6173606;22;98445;-52
2023/03/16 10:05:26;;;;;;;1.20;0.80;;;;;;;10.84;51.56;101738.28;6173872;22;96623;-52
2023/03/16 10:08:26;;;;;;;1.20;0.80;;;;;;;10.89;48.68;101734.13;6174009;22;96758;-52
2023/03/16 10:11:10;;;;;;;0.60;0.50;;;;;;;10.96;49.18;101744.81;6173301;22;97009;-52
2023/03/16 10:14:01;;;;;;;3.27;0.80;;;;;;;10.97;48.72;101746.31;6174169;22;97723;-51
2023/03/16 10:16:34;;;;;;;1.00;0.60;;;;;;;10.98;50.82;101739.59;6147408;22;97545;-52
2023/03/16 10:19:13;;;;;;;2.97;0.93;;;;;;;11.03;50.10;101744.47;6173374;22;97016;-53
2023/03/16 10:21:40;;;;;;;1.37;1.00;;;;;;;11.05;50.83;101728.22;6173344;22;96885;-53
2023/03/16 10:24:44;;;;;;;3.43;0.70;;;;;;;11.08;48.50;101728.03;6173636;22;97044;-51
2023/03/16 10:27:21;;;;;;;3.90;1.10;;;;;;;11.07;49.44;101725.75;6172560;22;97148;-52
2023/03/16 10:29:47;;;;;;;1.77;0.60;;;;;;;11.07;49.83;101732.00;6173893;22;96565;-52
2023/03/16 10:32:18;;;;;;;0.70;0.70;;;;;;;11.05;49.07;101714.47;6175019;22;96973;-52
2023/03/16 10:34:53;;;;;;;2.00;0.80;;;;;;;11.13;49.90;101712.84;6173297;22;97091;-52
2023/03/16 10:37:19;;;;;;;1.80;0.97;;;;;;;11.20;49.90;101718.75;6173748;22;96992;-52
2023/03/16 10:39:47;;;;;;;1.43;0.70;;;;;;;11.18;48.80;101718.47;6174214;22;97120;-52
2023/03/16 10:42:15;;;;;;;2.00;0.70;;;;;;;11.16;49.66;101718.19;6174674;22;96966;-52
2023/03/16 10:44:41;;;;;;;2.07;0.60;;;;;;;11.20;49.61;101720.78;6174212;22;96670;-52
2023/03/16 10:47:15;;;;;;;1.13;0.60;;;;;;;11.23;48.83;101709.56;6173359;22;96954;-51
2023/03/16 10:49:47;;;;;;;1.33;0.50;;;;;;;11.28;48.74;101708.16;6173372;22;96582;-51
2023/03/16 10:52:16;;;;;;;0.77;0.77;;;;;;;11.41;49.22;101702.38;6174453;22;96551;-52
2023/03/16 10:54:53;;;;;;;0.90;0.70;;;;;;;11.48;47.52;101700.03;6174069;22;97309;-51
2023/03/16 10:57:30;;;;;;;2.23;0.57;;;;;;;11.57;48.11;101705.47;6173301;22;97193;-52
2023/03/16 11:00:05;;;;;;;0.80;0.50;;;;;;;11.70;48.18;101694.19;6174328;22;97217;-52
2023/03/16 11:02:33;;;;;;;1.77;0.70;;;;;;;11.82;48.46;101696.66;6174642;22;97093;-52
2023/03/16 11:04:58;;;;;;;0.80;0.50;;;;;;;11.98;48.49;101704.47;6173164;22;96821;-52
2023/03/16 11:07:24;;;;;;;1.33;0.60;;;;;;;12.09;48.36;101705.88;6173697;22;96980;-52
2023/03/16 11:09:51;;;;;;;1.73;0.90;;;;;;;12.10;47.87;101704.66;6173424;22;96907;-52
2023/03/16 11:12:29;;;;;;;2.30;0.70;;;;;;;12.09;47.13;101692.09;6174063;22;96919;-52
2023/03/16 11:15:01;;;;;;;2.00;0.70;;;;;;;12.12;46.23;101696.66;6173915;22;96877;-51
2023/03/16 11:17:41;;;;;;;1.90;0.70;;;;;;;12.16;45.87;101692.47;6173063;22;97077;-51
2023/03/16 11:20:25;;;;;;;1.73;0.63;;;;;;;12.35;46.39;101687.47;6173464;22;97113;-51
2023/03/16 11:22:51;;;;;;;1.77;0.97;;;;;;;12.58;47.66;101689.34;6173770;22;96925;-52
2023/03/16 11:25:19;;;;;;;2.03;0.53;;;;;;;12.82;47.39;101692.66;6175084;22;97204;-52
2023/03/16 11:28:12;;;;;;;3.03;0.70;;;;;;;13.06;45.06;101682.19;6174788;22;97794;-50
2023/03/16 11:30:54;;;;;;;2.40;0.77;;;;;;;13.23;43.88;101691.47;6175197;22;96536;-51
2023/03/16 11:33:20;;;;;;;0.60;0.60;;;;;;;13.36;46.12;101680.81;6175477;22;97136;-52
2023/03/16 11:36:10;;;;;;;2.63;0.80;;;;;;;13.52;44.38;101682.97;6174128;22;97210;-52